sensor_id;sensor_type;location;lat;lon;timestamp;P1;durP1;ratioP1;P2;durP2;ratioP2
727;SDS011;347;48.780;9.158;2023-03-14T00:02:06;6.00;;;5.80;;
727;SDS011;347;48.780;9.158;2023-03-14T00:04:32;5.50;;;5.30;;
727;SDS011;347;48.780;9.158;2023-03-14T00:06:57;5.60;;;5.37;;
727;SDS011;347;48.780;9.158;2023-03-14T00:09:23;5.70;;;5.43;;
727;SDS011;347;48.780;9.158;2023-03-14T00:11:48;4.83;;;4.73;;
727;SDS011;347;48.780;9.158;2023-03-14T00:14:14;5.67;;;5.50;;
727;SDS011;347;48.780;9.158;2023-03-14T00:16:41;5.20;;;5.10;;
727;SDS011;347;48.780;9.158;2023-03-14T00:19:10;4.87;;;4.77;;
727;SDS011;347;48.780;9.158;2023-03-14T00:21:35;5.30;;;5.10;;
727;SDS011;347;48.780;9.158;2023-03-14T00:24:01;5.20;;;5.10;;
727;SDS011;347;48.780;9.158;2023-03-14T00:26:27;5.10;;;5.00;;
727;SDS011;347;48.780;9.158;2023-03-14T00:28:53;5.20;;;5.10;;
727;SDS011;347;48.780;9.158;2023-03-14T00:31:19;5.23;;;5.00;;
727;SDS011;347;48.780;9.158;2023-03-14T00:33:45;5.20;;;5.10;;
727;SDS011;347;48.780;9.158;2023-03-14T00:36:12;5.20;;;5.10;;
727;SDS011;347;48.780;9.158;2023-03-14T00:38:40;5.37;;;5.17;;
727;SDS011;347;48.780;9.158;2023-03-14T00:41:07;5.60;;;5.40;;
727;SDS011;347;48.780;9.158;2023-03-14T00:43:35;5.20;;;5.10;;
727;SDS011;347;48.780;9.158;2023-03-14T00:46:01;5.30;;;5.13;;
727;SDS011;347;48.780;9.158;2023-03-14T00:48:26;5.30;;;5.10;;
727;SDS011;347;48.780;9.158;2023-03-14T00:50:53;5.57;;;5.37;;
727;SDS011;347;48.780;9.158;2023-03-14T00:53:18;5.60;;;5.40;;
727;SDS011;347;48.780;9.158;2023-03-14T00:55:44;5.50;;;5.30;;
727;SDS011;347;48.780;9.158;2023-03-14T00:58:13;6.20;;;6.00;;
727;SDS011;347;48.780;9.158;2023-03-14T01:00:40;6.00;;;5.80;;
727;SDS011;347;48.780;9.158;2023-03-14T01:03:07;5.53;;;5.30;;
727;SDS011;347;48.780;9.158;2023-03-14T01:05:33;6.27;;;6.10;;
727;SDS011;347;48.780;9.158;2023-03-14T01:07:59;5.73;;;5.53;;
727;SDS011;347;48.780;9.158;2023-03-14T01:10:25;5.77;;;5.57;;
727;SDS011;347;48.780;9.158;2023-03-14T01:12:51;5.63;;;5.43;;
727;SDS011;347;48.780;9.158;2023-03-14T01:15:17;5.73;;;5.53;;
727;SDS011;347;48.780;9.158;2023-03-14T01:17:42;5.87;;;5.67;;
727;SDS011;347;48.780;9.158;2023-03-14T01:20:09;6.17;;;5.87;;
727;SDS011;347;48.780;9.158;2023-03-14T01:22:37;5.80;;;5.70;;
727;SDS011;347;48.780;9.158;2023-03-14T01:25:05;5.93;;;5.83;;
727;SDS011;347;48.780;9.158;2023-03-14T01:27:31;6.23;;;6.13;;
727;SDS011;347;48.780;9.158;2023-03-14T01:29:57;6.33;;;6.10;;
727;SDS011;347;48.780;9.158;2023-03-14T01:32:23;6.40;;;6.20;;
727;SDS011;347;48.780;9.158;2023-03-14T01:34:49;6.90;;;6.70;;
727;SDS011;347;48.780;9.158;2023-03-14T01:37:14;7.30;;;7.10;;
727;SDS011;347;48.780;9.158;2023-03-14T01:39:40;6.83;;;6.53;;
727;SDS011;347;48.780;9.158;2023-03-14T01:42:05;7.53;;;7.30;;
727;SDS011;347;48.780;9.158;2023-03-14T01:47:51;7.10;;;6.80;;
727;SDS011;347;48.780;9.158;2023-03-14T01:50:16;6.93;;;6.73;;
727;SDS011;347;48.780;9.158;2023-03-14T01:52:43;7.40;;;7.20;;
727;SDS011;347;48.780;9.158;2023-03-14T01:55:14;7.07;;;6.87;;
727;SDS011;347;48.780;9.158;2023-03-14T01:57:46;7.50;;;7.30;;
727;SDS011;347;48.780;9.158;2023-03-14T02:00:17;7.00;;;6.80;;
727;SDS011;347;48.780;9.158;2023-03-14T02:02:46;7.57;;;7.17;;
727;SDS011;347;48.780;9.158;2023-03-14T02:05:16;7.80;;;7.50;;
727;SDS011;347;48.780;9.158;2023-03-14T02:07:54;7.37;;;7.17;;
727;SDS011;347;48.780;9.158;2023-03-14T02:10:26;7.73;;;7.43;;
727;SDS011;347;48.780;9.158;2023-03-14T02:12:55;7.30;;;7.10;;
727;SDS011;347;48.780;9.158;2023-03-14T02:15:24;7.00;;;6.80;;
727;SDS011;347;48.780;9.158;2023-03-14T02:17:50;7.70;;;7.47;;
727;SDS011;347;48.780;9.158;2023-03-14T02:23:09;7.87;;;7.67;;
727;SDS011;347;48.780;9.158;2023-03-14T02:25:52;7.30;;;7.10;;
727;SDS011;347;48.780;9.158;2023-03-14T02:28:29;7.17;;;6.97;;
727;SDS011;347;48.780;9.158;2023-03-14T02:30:54;7.50;;;7.20;;
727;SDS011;347;48.780;9.158;2023-03-14T02:33:20;7.00;;;6.80;;
727;SDS011;347;48.780;9.158;2023-03-14T02:41:06;7.13;;;6.93;;
727;SDS011;347;48.780;9.158;2023-03-14T02:43:32;6.77;;;6.57;;
727;SDS011;347;48.780;9.158;2023-03-14T02:45:57;6.60;;;6.40;;
727;SDS011;347;48.780;9.158;2023-03-14T02:48:30;6.53;;;6.33;;
727;SDS011;347;48.780;9.158;2023-03-14T02:51:01;6.67;;;6.47;;
727;SDS011;347;48.780;9.158;2023-03-14T02:53:28;6.97;;;6.60;;
727;SDS011;347;48.780;9.158;2023-03-14T02:55:56;6.70;;;6.50;;
727;SDS011;347;48.780;9.158;2023-03-14T02:58:22;6.83;;;6.63;;
727;SDS011;347;48.780;9.158;2023-03-14T03:00:48;6.53;;;6.33;;
727;SDS011;347;48.780;9.158;2023-03-14T03:03:14;7.53;;;7.13;;
727;SDS011;347;48.780;9.158;2023-03-14T03:05:39;7.00;;;6.80;;
727;SDS011;347;48.780;9.158;2023-03-14T03:11:27;7.20;;;7.00;;
727;SDS011;347;48.780;9.158;2023-03-14T03:13:52;6.80;;;6.60;;
727;SDS011;347;48.780;9.158;2023-03-14T03:16:18;7.07;;;6.70;;
727;SDS011;347;48.780;9.158;2023-03-14T03:18:44;7.70;;;7.50;;
727;SDS011;347;48.780;9.158;2023-03-14T03:21:09;7.77;;;7.47;;
727;SDS011;347;48.780;9.158;2023-03-14T03:23:35;7.50;;;7.20;;
727;SDS011;347;48.780;9.158;2023-03-14T03:26:00;7.53;;;7.33;;
727;SDS011;347;48.780;9.158;2023-03-14T03:28:27;8.03;;;7.73;;
727;SDS011;347;48.780;9.158;2023-03-14T03:30:52;7.80;;;7.60;;
727;SDS011;347;48.780;9.158;2023-03-14T03:33:18;8.17;;;7.97;;
727;SDS011;347;48.780;9.158;2023-03-14T03:35:44;7.80;;;7.50;;
727;SDS011;347;48.780;9.158;2023-03-14T03:38:12;8.70;;;8.40;;
727;SDS011;347;48.780;9.158;2023-03-14T03:40:38;8.40;;;8.10;;
727;SDS011;347;48.780;9.158;2023-03-14T03:43:03;8.30;;;8.00;;
727;SDS011;347;48.780;9.158;2023-03-14T03:45:29;8.27;;;7.97;;
727;SDS011;347;48.780;9.158;2023-03-14T03:47:55;8.90;;;8.33;;
727;SDS011;347;48.780;9.158;2023-03-14T03:50:20;8.90;;;8.47;;
727;SDS011;347;48.780;9.158;2023-03-14T03:52:46;9.03;;;8.63;;
727;SDS011;347;48.780;9.158;2023-03-14T03:55:11;8.27;;;8.07;;
727;SDS011;347;48.780;9.158;2023-03-14T03:57:37;8.40;;;8.10;;
727;SDS011;347;48.780;9.158;2023-03-14T04:00:03;9.10;;;8.67;;
727;SDS011;347;48.780;9.158;2023-03-14T04:02:30;9.50;;;9.10;;
727;SDS011;347;48.780;9.158;2023-03-14T04:04:56;8.87;;;8.57;;
727;SDS011;347;48.780;9.158;2023-03-14T04:07:21;9.43;;;9.03;;
727;SDS011;347;48.780;9.158;2023-03-14T04:09:47;10.30;;;9.70;;
727;SDS011;347;48.780;9.158;2023-03-14T04:12:12;9.40;;;9.00;;
727;SDS011;347;48.780;9.158;2023-03-14T04:14:38;8.63;;;8.33;;
727;SDS011;347;48.780;9.158;2023-03-14T04:17:05;9.50;;;9.10;;
727;SDS011;347;48.780;9.158;2023-03-14T04:19:31;9.87;;;9.37;;
727;SDS011;347;48.780;9.158;2023-03-14T04:21:57;9.10;;;8.80;;
727;SDS011;347;48.780;9.158;2023-03-14T04:24:22;9.40;;;9.00;;
727;SDS011;347;48.780;9.158;2023-03-14T04:26:48;9.13;;;8.83;;
727;SDS011;347;48.780;9.158;2023-03-14T04:29:13;9.57;;;9.07;;
727;SDS011;347;48.780;9.158;2023-03-14T04:31:39;10.07;;;9.50;;
727;SDS011;347;48.780;9.158;2023-03-14T04:34:05;9.73;;;9.10;;
727;SDS011;347;48.780;9.158;2023-03-14T04:36:30;9.63;;;9.03;;
727;SDS011;347;48.780;9.158;2023-03-14T04:38:56;9.47;;;8.90;;
727;SDS011;347;48.780;9.158;2023-03-14T04:41:21;9.87;;;9.47;;
727;SDS011;347;48.780;9.158;2023-03-14T04:43:47;9.30;;;9.00;;
727;SDS011;347;48.780;9.158;2023-03-14T04:46:12;9.60;;;9.20;;
727;SDS011;347;48.780;9.158;2023-03-14T04:48:38;9.33;;;8.93;;
727;SDS011;347;48.780;9.158;2023-03-14T04:51:03;9.90;;;9.30;;
727;SDS011;347;48.780;9.158;2023-03-14T04:53:29;9.00;;;8.70;;
727;SDS011;347;48.780;9.158;2023-03-14T04:55:55;9.27;;;8.90;;
727;SDS011;347;48.780;9.158;2023-03-14T04:58:22;9.60;;;9.20;;
727;SDS011;347;48.780;9.158;2023-03-14T06:18:28;10.87;;;10.37;;
727;SDS011;347;48.780;9.158;2023-03-14T06:20:54;10.30;;;9.90;;
727;SDS011;347;48.780;9.158;2023-03-14T06:23:20;9.97;;;9.57;;
727;SDS011;347;48.780;9.158;2023-03-14T06:25:47;10.77;;;10.20;;
727;SDS011;347;48.780;9.158;2023-03-14T06:28:12;9.73;;;9.13;;
727;SDS011;347;48.780;9.158;2023-03-14T06:30:38;10.10;;;9.60;;
727;SDS011;347;48.780;9.158;2023-03-14T06:33:03;9.53;;;9.13;;
727;SDS011;347;48.780;9.158;2023-03-14T06:35:29;10.17;;;9.73;;
727;SDS011;347;48.780;9.158;2023-03-14T06:37:54;10.77;;;10.27;;
727;SDS011;347;48.780;9.158;2023-03-14T06:40:20;9.97;;;9.47;;
727;SDS011;347;48.780;9.158;2023-03-14T06:42:46;9.03;;;8.70;;
727;SDS011;347;48.780;9.158;2023-03-14T06:45:12;9.83;;;9.33;;
727;SDS011;347;48.780;9.158;2023-03-14T06:47:38;8.73;;;8.40;;
727;SDS011;347;48.780;9.158;2023-03-14T06:50:04;10.00;;;9.50;;
727;SDS011;347;48.780;9.158;2023-03-14T06:52:31;10.70;;;10.10;;
727;SDS011;347;48.780;9.158;2023-03-14T06:54:56;10.10;;;9.50;;
727;SDS011;347;48.780;9.158;2023-03-14T06:57:22;9.70;;;9.20;;
727;SDS011;347;48.780;9.158;2023-03-14T06:59:47;9.03;;;8.63;;
727;SDS011;347;48.780;9.158;2023-03-14T07:02:13;8.97;;;8.47;;
727;SDS011;347;48.780;9.158;2023-03-14T07:04:39;8.77;;;8.57;;
727;SDS011;347;48.780;9.158;2023-03-14T07:07:04;8.80;;;8.50;;
727;SDS011;347;48.780;9.158;2023-03-14T07:09:31;8.27;;;8.03;;
727;SDS011;347;48.780;9.158;2023-03-14T07:11:57;9.63;;;8.93;;
727;SDS011;347;48.780;9.158;2023-03-14T07:14:22;8.93;;;8.60;;
727;SDS011;347;48.780;9.158;2023-03-14T07:16:48;8.90;;;8.60;;
727;SDS011;347;48.780;9.158;2023-03-14T07:19:14;9.20;;;8.80;;
727;SDS011;347;48.780;9.158;2023-03-14T07:21:39;8.90;;;8.50;;
727;SDS011;347;48.780;9.158;2023-03-14T07:24:05;8.90;;;8.60;;
727;SDS011;347;48.780;9.158;2023-03-14T07:26:30;8.40;;;8.10;;
727;SDS011;347;48.780;9.158;2023-03-14T07:28:56;9.17;;;8.80;;
727;SDS011;347;48.780;9.158;2023-03-14T07:31:22;8.57;;;8.37;;
727;SDS011;347;48.780;9.158;2023-03-14T07:33:47;8.77;;;8.47;;
727;SDS011;347;48.780;9.158;2023-03-14T07:36:13;8.73;;;8.37;;
727;SDS011;347;48.780;9.158;2023-03-14T07:38:39;8.97;;;8.57;;
727;SDS011;347;48.780;9.158;2023-03-14T07:41:05;10.10;;;9.50;;
727;SDS011;347;48.780;9.158;2023-03-14T07:43:31;8.30;;;8.00;;
727;SDS011;347;48.780;9.158;2023-03-14T07:45:59;9.33;;;8.63;;
727;SDS011;347;48.780;9.158;2023-03-14T07:48:25;9.00;;;8.60;;
727;SDS011;347;48.780;9.158;2023-03-14T07:50:52;8.93;;;8.57;;
727;SDS011;347;48.780;9.158;2023-03-14T07:53:19;9.43;;;8.80;;
727;SDS011;347;48.780;9.158;2023-03-14T07:55:45;8.40;;;8.10;;
727;SDS011;347;48.780;9.158;2023-03-14T07:58:11;8.97;;;8.57;;
727;SDS011;347;48.780;9.158;2023-03-14T08:00:37;9.30;;;8.90;;
727;SDS011;347;48.780;9.158;2023-03-14T08:03:03;9.10;;;8.80;;
727;SDS011;347;48.780;9.158;2023-03-14T08:05:28;9.30;;;8.90;;
727;SDS011;347;48.780;9.158;2023-03-14T08:07:54;7.90;;;7.60;;
727;SDS011;347;48.780;9.158;2023-03-14T08:10:20;9.13;;;8.60;;
727;SDS011;347;48.780;9.158;2023-03-14T08:12:49;9.30;;;9.00;;
727;SDS011;347;48.780;9.158;2023-03-14T08:15:20;7.93;;;7.63;;
727;SDS011;347;48.780;9.158;2023-03-14T08:17:46;8.50;;;8.20;;
727;SDS011;347;48.780;9.158;2023-03-14T08:20:15;8.23;;;7.93;;
727;SDS011;347;48.780;9.158;2023-03-14T08:22:46;7.37;;;7.17;;
727;SDS011;347;48.780;9.158;2023-03-14T08:25:11;7.70;;;7.40;;
727;SDS011;347;48.780;9.158;2023-03-14T08:27:37;8.90;;;8.50;;
727;SDS011;347;48.780;9.158;2023-03-14T08:30:04;8.27;;;7.97;;
727;SDS011;347;48.780;9.158;2023-03-14T08:32:31;8.40;;;8.20;;
727;SDS011;347;48.780;9.158;2023-03-14T08:34:56;7.97;;;7.63;;
727;SDS011;347;48.780;9.158;2023-03-14T08:37:22;8.60;;;8.30;;
727;SDS011;347;48.780;9.158;2023-03-14T08:39:49;8.57;;;8.27;;
727;SDS011;347;48.780;9.158;2023-03-14T08:42:15;8.37;;;8.17;;
727;SDS011;347;48.780;9.158;2023-03-14T08:44:41;8.80;;;8.33;;
727;SDS011;347;48.780;9.158;2023-03-14T08:47:06;8.70;;;8.40;;
727;SDS011;347;48.780;9.158;2023-03-14T08:49:32;8.70;;;8.13;;
727;SDS011;347;48.780;9.158;2023-03-14T08:51:57;8.50;;;8.20;;
727;SDS011;347;48.780;9.158;2023-03-14T08:54:23;8.20;;;8.00;;
727;SDS011;347;48.780;9.158;2023-03-14T08:56:49;8.60;;;8.30;;
727;SDS011;347;48.780;9.158;2023-03-14T08:59:14;8.27;;;7.97;;
727;SDS011;347;48.780;9.158;2023-03-14T09:01:40;8.57;;;8.07;;
727;SDS011;347;48.780;9.158;2023-03-14T09:04:06;8.90;;;8.30;;
727;SDS011;347;48.780;9.158;2023-03-14T09:06:32;8.37;;;8.07;;
727;SDS011;347;48.780;9.158;2023-03-14T09:08:57;8.80;;;8.50;;
727;SDS011;347;48.780;9.158;2023-03-14T09:11:23;8.13;;;7.83;;
727;SDS011;347;48.780;9.158;2023-03-14T09:13:48;8.20;;;7.97;;
727;SDS011;347;48.780;9.158;2023-03-14T09:16:14;8.30;;;8.00;;
727;SDS011;347;48.780;9.158;2023-03-14T09:18:39;8.40;;;8.00;;
727;SDS011;347;48.780;9.158;2023-03-14T09:21:05;8.63;;;8.30;;
727;SDS011;347;48.780;9.158;2023-03-14T09:23:31;8.90;;;8.50;;
727;SDS011;347;48.780;9.158;2023-03-14T09:25:57;8.30;;;8.03;;
727;SDS011;347;48.780;9.158;2023-03-14T09:28:23;8.60;;;8.20;;
727;SDS011;347;48.780;9.158;2023-03-14T09:30:49;8.33;;;8.13;;
727;SDS011;347;48.780;9.158;2023-03-14T09:33:15;8.30;;;7.90;;
727;SDS011;347;48.780;9.158;2023-03-14T09:35:41;9.13;;;8.77;;
727;SDS011;347;48.780;9.158;2023-03-14T09:38:06;8.60;;;8.30;;
727;SDS011;347;48.780;9.158;2023-03-14T09:40:34;7.93;;;7.63;;
727;SDS011;347;48.780;9.158;2023-03-14T09:43:01;8.00;;;7.80;;
727;SDS011;347;48.780;9.158;2023-03-14T09:48:01;8.33;;;7.97;;
727;SDS011;347;48.780;9.158;2023-03-14T09:51:11;8.00;;;7.70;;
727;SDS011;347;48.780;9.158;2023-03-14T09:53:23;7.33;;;7.13;;
727;SDS011;347;48.780;9.158;2023-03-14T09:55:53;8.60;;;8.07;;
727;SDS011;347;48.780;9.158;2023-03-14T09:58:20;7.50;;;7.30;;
727;SDS011;347;48.780;9.158;2023-03-14T10:00:52;7.60;;;7.40;;
727;SDS011;347;48.780;9.158;2023-03-14T10:05:48;7.50;;;7.30;;
727;SDS011;347;48.780;9.158;2023-03-14T10:08:14;8.20;;;7.90;;
727;SDS011;347;48.780;9.158;2023-03-14T10:10:40;7.57;;;7.33;;
727;SDS011;347;48.780;9.158;2023-03-14T10:16:08;8.30;;;7.90;;
727;SDS011;347;48.780;9.158;2023-03-14T10:18:33;8.80;;;8.50;;
727;SDS011;347;48.780;9.158;2023-03-14T10:21:04;7.67;;;7.37;;
727;SDS011;347;48.780;9.158;2023-03-14T10:23:31;7.60;;;7.30;;
727;SDS011;347;48.780;9.158;2023-03-14T10:26:15;7.93;;;7.63;;
727;SDS011;347;48.780;9.158;2023-03-14T10:28:53;8.23;;;7.83;;
727;SDS011;347;48.780;9.158;2023-03-14T10:31:26;8.47;;;7.87;;
727;SDS011;347;48.780;9.158;2023-03-14T10:34:02;8.03;;;7.63;;
727;SDS011;347;48.780;9.158;2023-03-14T10:36:29;7.43;;;7.23;;
727;SDS011;347;48.780;9.158;2023-03-14T10:41:48;7.13;;;6.83;;
727;SDS011;347;48.780;9.158;2023-03-14T10:44:18;8.10;;;7.60;;
727;SDS011;347;48.780;9.158;2023-03-14T10:46:54;7.50;;;7.10;;
727;SDS011;347;48.780;9.158;2023-03-14T10:49:26;7.60;;;7.40;;
727;SDS011;347;48.780;9.158;2023-03-14T10:52:01;7.10;;;6.90;;
727;SDS011;347;48.780;9.158;2023-03-14T10:54:40;7.20;;;6.90;;
727;SDS011;347;48.780;9.158;2023-03-14T10:57:06;7.23;;;7.03;;
727;SDS011;347;48.780;9.158;2023-03-14T12:48:21;8.70;;;8.10;;
727;SDS011;347;48.780;9.158;2023-03-14T12:53:38;8.63;;;8.27;;
727;SDS011;347;48.780;9.158;2023-03-14T13:01:30;8.40;;;8.10;;
727;SDS011;347;48.780;9.158;2023-03-14T13:04:02;8.70;;;8.40;;
727;SDS011;347;48.780;9.158;2023-03-14T13:06:44;8.13;;;7.83;;
727;SDS011;347;48.780;9.158;2023-03-14T13:11:50;9.00;;;8.50;;
727;SDS011;347;48.780;9.158;2023-03-14T13:14:19;7.10;;;6.90;;
727;SDS011;347;48.780;9.158;2023-03-14T13:16:46;7.83;;;7.53;;
727;SDS011;347;48.780;9.158;2023-03-14T13:19:25;7.50;;;7.23;;
727;SDS011;347;48.780;9.158;2023-03-14T13:21:57;7.63;;;7.33;;
727;SDS011;347;48.780;9.158;2023-03-14T13:24:27;7.40;;;7.20;;
727;SDS011;347;48.780;9.158;2023-03-14T13:26:53;7.77;;;7.43;;
727;SDS011;347;48.780;9.158;2023-03-14T13:29:25;8.37;;;7.90;;
727;SDS011;347;48.780;9.158;2023-03-14T13:31:53;7.67;;;7.37;;
727;SDS011;347;48.780;9.158;2023-03-14T13:34:30;8.20;;;7.60;;
727;SDS011;347;48.780;9.158;2023-03-14T13:36:57;6.93;;;6.63;;
727;SDS011;347;48.780;9.158;2023-03-14T13:39:23;7.47;;;7.17;;
727;SDS011;347;48.780;9.158;2023-03-14T13:42:00;8.60;;;8.10;;
727;SDS011;347;48.780;9.158;2023-03-14T13:44:37;8.03;;;7.73;;
727;SDS011;347;48.780;9.158;2023-03-14T13:47:05;7.70;;;7.50;;
727;SDS011;347;48.780;9.158;2023-03-14T13:49:37;7.83;;;7.60;;
727;SDS011;347;48.780;9.158;2023-03-14T13:52:03;7.37;;;7.07;;
727;SDS011;347;48.780;9.158;2023-03-14T13:54:46;8.03;;;7.67;;
727;SDS011;347;48.780;9.158;2023-03-14T13:57:11;7.00;;;6.70;;
727;SDS011;347;48.780;9.158;2023-03-14T13:59:37;8.03;;;7.53;;
727;SDS011;347;48.780;9.158;2023-03-14T14:02:04;6.70;;;6.50;;
727;SDS011;347;48.780;9.158;2023-03-14T14:04:39;7.47;;;7.17;;
727;SDS011;347;48.780;9.158;2023-03-14T14:07:06;6.67;;;6.47;;
727;SDS011;347;48.780;9.158;2023-03-14T14:09:41;7.23;;;6.97;;
727;SDS011;347;48.780;9.158;2023-03-14T14:14:52;6.77;;;6.57;;
727;SDS011;347;48.780;9.158;2023-03-14T14:17:20;6.60;;;6.40;;
727;SDS011;347;48.780;9.158;2023-03-14T14:19:49;7.40;;;7.10;;
727;SDS011;347;48.780;9.158;2023-03-14T14:22:16;7.47;;;7.00;;
727;SDS011;347;48.780;9.158;2023-03-14T14:24:43;6.23;;;6.00;;
727;SDS011;347;48.780;9.158;2023-03-14T14:29:41;6.33;;;6.07;;
727;SDS011;347;48.780;9.158;2023-03-14T14:37:27;6.83;;;6.40;;
727;SDS011;347;48.780;9.158;2023-03-14T14:39:56;6.60;;;6.20;;
727;SDS011;347;48.780;9.158;2023-03-14T14:42:27;6.50;;;6.20;;
727;SDS011;347;48.780;9.158;2023-03-14T14:44:56;6.70;;;6.40;;
727;SDS011;347;48.780;9.158;2023-03-14T14:47:23;6.80;;;6.50;;
727;SDS011;347;48.780;9.158;2023-03-14T14:49:51;6.47;;;6.17;;
727;SDS011;347;48.780;9.158;2023-03-14T14:52:19;6.70;;;6.40;;
727;SDS011;347;48.780;9.158;2023-03-14T14:54:48;6.50;;;6.20;;
727;SDS011;347;48.780;9.158;2023-03-14T14:57:22;6.57;;;6.27;;
727;SDS011;347;48.780;9.158;2023-03-14T14:59:50;7.77;;;7.40;;
727;SDS011;347;48.780;9.158;2023-03-14T15:02:28;6.67;;;6.37;;
727;SDS011;347;48.780;9.158;2023-03-14T15:05:13;7.17;;;6.87;;
727;SDS011;347;48.780;9.158;2023-03-14T15:07:38;7.37;;;6.70;;
727;SDS011;347;48.780;9.158;2023-03-14T15:10:04;7.80;;;7.20;;
727;SDS011;347;48.780;9.158;2023-03-14T15:12:30;6.23;;;6.00;;
727;SDS011;347;48.780;9.158;2023-03-14T15:14:56;6.57;;;6.27;;
727;SDS011;347;48.780;9.158;2023-03-14T15:17:22;6.97;;;6.60;;
727;SDS011;347;48.780;9.158;2023-03-14T15:19:49;7.27;;;6.67;;
727;SDS011;347;48.780;9.158;2023-03-14T15:22:14;6.93;;;6.63;;
727;SDS011;347;48.780;9.158;2023-03-14T15:24:40;6.93;;;6.63;;
727;SDS011;347;48.780;9.158;2023-03-14T15:27:10;6.57;;;6.07;;
727;SDS011;347;48.780;9.158;2023-03-14T15:29:38;6.40;;;6.00;;
727;SDS011;347;48.780;9.158;2023-03-14T15:32:04;6.97;;;6.57;;
727;SDS011;347;48.780;9.158;2023-03-14T15:34:30;6.50;;;6.20;;
727;SDS011;347;48.780;9.158;2023-03-14T15:36:55;7.43;;;6.83;;
727;SDS011;347;48.780;9.158;2023-03-14T15:39:21;6.77;;;6.17;;
727;SDS011;347;48.780;9.158;2023-03-14T15:41:46;6.40;;;6.00;;
727;SDS011;347;48.780;9.158;2023-03-14T15:44:12;6.60;;;6.10;;
727;SDS011;347;48.780;9.158;2023-03-14T15:46:38;6.37;;;6.07;;
727;SDS011;347;48.780;9.158;2023-03-14T15:49:03;6.27;;;6.00;;
727;SDS011;347;48.780;9.158;2023-03-14T15:51:29;6.03;;;5.83;;
727;SDS011;347;48.780;9.158;2023-03-14T15:53:55;6.93;;;6.43;;
727;SDS011;347;48.780;9.158;2023-03-14T15:56:20;6.27;;;5.83;;
727;SDS011;347;48.780;9.158;2023-03-14T15:58:48;6.30;;;5.87;;
727;SDS011;347;48.780;9.158;2023-03-14T16:01:15;6.60;;;6.17;;
727;SDS011;347;48.780;9.158;2023-03-14T16:03:42;5.80;;;5.40;;
727;SDS011;347;48.780;9.158;2023-03-14T16:06:09;7.03;;;6.60;;
727;SDS011;347;48.780;9.158;2023-03-14T16:08:34;7.03;;;6.57;;
727;SDS011;347;48.780;9.158;2023-03-14T16:11:00;6.67;;;5.97;;
727;SDS011;347;48.780;9.158;2023-03-14T16:13:25;7.03;;;6.43;;
727;SDS011;347;48.780;9.158;2023-03-14T16:15:53;5.70;;;5.43;;
727;SDS011;347;48.780;9.158;2023-03-14T16:18:23;6.00;;;5.70;;
727;SDS011;347;48.780;9.158;2023-03-14T16:20:56;6.50;;;6.10;;
727;SDS011;347;48.780;9.158;2023-03-14T16:23:26;5.83;;;5.63;;
727;SDS011;347;48.780;9.158;2023-03-14T16:25:53;5.80;;;5.50;;
727;SDS011;347;48.780;9.158;2023-03-14T16:28:19;5.90;;;5.67;;
727;SDS011;347;48.780;9.158;2023-03-14T16:30:45;6.23;;;5.93;;
727;SDS011;347;48.780;9.158;2023-03-14T16:33:11;5.50;;;5.20;;
727;SDS011;347;48.780;9.158;2023-03-14T16:35:38;7.33;;;6.60;;
727;SDS011;347;48.780;9.158;2023-03-14T16:38:04;6.30;;;5.90;;
727;SDS011;347;48.780;9.158;2023-03-14T16:40:30;5.90;;;5.60;;
727;SDS011;347;48.780;9.158;2023-03-14T16:42:55;6.47;;;6.07;;
727;SDS011;347;48.780;9.158;2023-03-14T16:45:21;6.50;;;6.00;;
727;SDS011;347;48.780;9.158;2023-03-14T16:47:47;6.70;;;6.30;;
727;SDS011;347;48.780;9.158;2023-03-14T16:50:12;6.60;;;6.17;;
727;SDS011;347;48.780;9.158;2023-03-14T16:52:38;6.50;;;6.10;;
727;SDS011;347;48.780;9.158;2023-03-14T16:55:03;6.40;;;6.10;;
727;SDS011;347;48.780;9.158;2023-03-14T16:57:31;6.13;;;5.73;;
727;SDS011;347;48.780;9.158;2023-03-14T19:40:56;7.37;;;7.07;;
727;SDS011;347;48.780;9.158;2023-03-14T19:43:23;8.13;;;7.73;;
727;SDS011;347;48.780;9.158;2023-03-14T19:45:49;7.00;;;6.60;;
727;SDS011;347;48.780;9.158;2023-03-14T19:48:14;6.37;;;6.07;;
727;SDS011;347;48.780;9.158;2023-03-14T19:50:40;7.80;;;7.03;;
727;SDS011;347;48.780;9.158;2023-03-14T19:53:07;7.60;;;7.10;;
727;SDS011;347;48.780;9.158;2023-03-14T19:55:32;8.03;;;7.53;;
727;SDS011;347;48.780;9.158;2023-03-14T19:57:59;7.07;;;6.67;;
727;SDS011;347;48.780;9.158;2023-03-14T20:00:25;7.23;;;6.83;;
727;SDS011;347;48.780;9.158;2023-03-14T20:02:51;6.83;;;6.33;;
727;SDS011;347;48.780;9.158;2023-03-14T20:05:18;7.70;;;7.20;;
727;SDS011;347;48.780;9.158;2023-03-14T20:07:45;6.80;;;6.40;;
727;SDS011;347;48.780;9.158;2023-03-14T20:10:11;6.60;;;6.30;;
727;SDS011;347;48.780;9.158;2023-03-14T20:12:42;6.90;;;6.40;;
727;SDS011;347;48.780;9.158;2023-03-14T20:15:08;6.73;;;6.40;;
727;SDS011;347;48.780;9.158;2023-03-14T20:17:34;6.70;;;6.50;;
727;SDS011;347;48.780;9.158;2023-03-14T20:20:03;6.27;;;6.03;;
727;SDS011;347;48.780;9.158;2023-03-14T20:22:31;6.77;;;6.47;;
727;SDS011;347;48.780;9.158;2023-03-14T20:25:00;6.80;;;6.50;;
727;SDS011;347;48.780;9.158;2023-03-14T20:27:28;6.80;;;6.40;;
727;SDS011;347;48.780;9.158;2023-03-14T20:29:57;6.53;;;6.23;;
727;SDS011;347;48.780;9.158;2023-03-14T20:32:23;7.00;;;6.60;;
727;SDS011;347;48.780;9.158;2023-03-14T20:34:48;6.50;;;6.20;;
727;SDS011;347;48.780;9.158;2023-03-14T20:37:14;6.27;;;5.97;;
727;SDS011;347;48.780;9.158;2023-03-14T20:39:39;6.37;;;6.10;;
727;SDS011;347;48.780;9.158;2023-03-14T20:42:05;6.63;;;6.23;;
727;SDS011;347;48.780;9.158;2023-03-14T20:44:30;6.33;;;5.93;;
727;SDS011;347;48.780;9.158;2023-03-14T20:46:56;5.70;;;5.50;;
727;SDS011;347;48.780;9.158;2023-03-14T20:49:24;6.23;;;5.93;;
727;SDS011;347;48.780;9.158;2023-03-14T20:51:50;7.00;;;6.60;;
727;SDS011;347;48.780;9.158;2023-03-14T20:54:16;7.30;;;6.80;;
727;SDS011;347;48.780;9.158;2023-03-14T20:56:41;6.47;;;6.17;;
727;SDS011;347;48.780;9.158;2023-03-14T20:59:10;7.03;;;6.63;;
727;SDS011;347;48.780;9.158;2023-03-14T21:01:36;6.50;;;6.10;;
727;SDS011;347;48.780;9.158;2023-03-14T21:04:01;13.20;;;12.03;;
727;SDS011;347;48.780;9.158;2023-03-14T21:06:27;6.57;;;6.20;;
727;SDS011;347;48.780;9.158;2023-03-14T21:08:52;6.20;;;5.90;;
727;SDS011;347;48.780;9.158;2023-03-14T21:11:18;7.20;;;6.80;;
727;SDS011;347;48.780;9.158;2023-03-14T21:13:43;8.93;;;8.30;;
727;SDS011;347;48.780;9.158;2023-03-14T21:16:09;7.00;;;6.60;;
727;SDS011;347;48.780;9.158;2023-03-14T21:18:34;7.40;;;6.83;;
727;SDS011;347;48.780;9.158;2023-03-14T21:21:00;7.37;;;7.00;;
727;SDS011;347;48.780;9.158;2023-03-14T21:23:26;7.30;;;7.00;;
727;SDS011;347;48.780;9.158;2023-03-14T21:25:52;7.10;;;6.80;;
727;SDS011;347;48.780;9.158;2023-03-14T21:28:19;6.90;;;6.53;;
727;SDS011;347;48.780;9.158;2023-03-14T21:30:45;6.97;;;6.57;;
727;SDS011;347;48.780;9.158;2023-03-14T21:33:10;7.20;;;6.70;;
727;SDS011;347;48.780;9.158;2023-03-14T21:35:37;6.93;;;6.43;;
727;SDS011;347;48.780;9.158;2023-03-14T21:38:03;6.57;;;6.27;;
727;SDS011;347;48.780;9.158;2023-03-14T21:40:28;8.33;;;7.73;;
727;SDS011;347;48.780;9.158;2023-03-14T21:42:54;7.53;;;7.10;;
727;SDS011;347;48.780;9.158;2023-03-14T21:45:23;9.93;;;9.20;;
727;SDS011;347;48.780;9.158;2023-03-14T21:47:51;7.50;;;6.90;;
727;SDS011;347;48.780;9.158;2023-03-14T21:50:17;7.17;;;6.87;;
727;SDS011;347;48.780;9.158;2023-03-14T21:52:43;7.73;;;7.23;;
727;SDS011;347;48.780;9.158;2023-03-14T21:55:10;7.67;;;7.37;;
727;SDS011;347;48.780;9.158;2023-03-14T21:57:41;7.00;;;6.70;;
727;SDS011;347;48.780;9.158;2023-03-14T22:00:09;7.30;;;6.97;;
727;SDS011;347;48.780;9.158;2023-03-14T22:02:36;7.27;;;6.83;;
727;SDS011;347;48.780;9.158;2023-03-14T22:05:02;7.67;;;7.20;;
727;SDS011;347;48.780;9.158;2023-03-14T22:07:28;7.73;;;7.40;;
727;SDS011;347;48.780;9.158;2023-03-14T22:09:53;7.97;;;7.67;;
727;SDS011;347;48.780;9.158;2023-03-14T22:12:19;7.97;;;7.67;;
727;SDS011;347;48.780;9.158;2023-03-14T22:14:46;7.07;;;6.77;;
727;SDS011;347;48.780;9.158;2023-03-14T22:17:12;7.47;;;7.20;;
727;SDS011;347;48.780;9.158;2023-03-14T22:19:38;8.30;;;8.00;;